sensor_id;sensor_type;location;lat;lon;timestamp;temperature;humidity
18335;DHT22;9293;49.524;10.964;2023-06-22T00:00:34;19.60;99.90
18335;DHT22;9293;49.524;10.964;2023-06-22T00:03:05;19.70;99.90
18335;DHT22;9293;49.524;10.964;2023-06-22T00:05:33;19.80;99.90
18335;DHT22;9293;49.524;10.964;2023-06-22T00:08:02;19.80;99.90
18335;DHT22;9293;49.524;10.964;2023-06-22T00:10:31;19.80;99.90
18335;DHT22;9293;49.524;10.964;2023-06-22T00:12:59;19.80;99.90
18335;DHT22;9293;49.524;10.964;2023-06-22T00:15:27;19.80;99.90
18335;DHT22;9293;49.524;10.964;2023-06-22T00:17:55;19.80;99.90
18335;DHT22;9293;49.524;10.964;2023-06-22T00:20:26;19.80;99.90
18335;DHT22;9293;49.524;10.964;2023-06-22T00:23:07;19.80;99.90
18335;DHT22;9293;49.524;10.964;2023-06-22T00:25:36;19.90;99.90
18335;DHT22;9293;49.524;10.964;2023-06-22T00:28:05;19.70;99.90
18335;DHT22;9293;49.524;10.964;2023-06-22T00:30:34;19.50;99.90
18335;DHT22;9293;49.524;10.964;2023-06-22T00:33:02;19.50;99.90
18335;DHT22;9293;49.524;10.964;2023-06-22T00:35:32;19.40;99.90
18335;DHT22;9293;49.524;10.964;2023-06-22T00:38:00;19.40;99.90
18335;DHT22;9293;49.524;10.964;2023-06-22T00:40:29;19.30;99.90
18335;DHT22;9293;49.524;10.964;2023-06-22T00:42:57;19.10;99.90
18335;DHT22;9293;49.524;10.964;2023-06-22T00:45:26;19.00;99.90
18335;DHT22;9293;49.524;10.964;2023-06-22T00:47:58;19.00;99.90
18335;DHT22;9293;49.524;10.964;2023-06-22T00:50:27;19.00;99.90
18335;DHT22;9293;49.524;10.964;2023-06-22T00:52:57;19.00;99.90
18335;DHT22;9293;49.524;10.964;2023-06-22T00:55:26;18.90;99.90
18335;DHT22;9293;49.524;10.964;2023-06-22T00:57:55;18.90;99.90
18335;DHT22;9293;49.524;10.964;2023-06-22T01:00:24;18.90;99.90
18335;DHT22;9293;49.524;10.964;2023-06-22T01:02:53;18.90;99.90
18335;DHT22;9293;49.524;10.964;2023-06-22T01:05:21;18.90;99.90
18335;DHT22;9293;49.524;10.964;2023-06-22T01:10:46;18.90;99.90
18335;DHT22;9293;49.524;10.964;2023-06-22T01:16:09;19.00;99.90
18335;DHT22;9293;49.524;10.964;2023-06-22T01:18:40;19.00;99.90
18335;DHT22;9293;49.524;10.964;2023-06-22T01:21:10;19.00;99.90
18335;DHT22;9293;49.524;10.964;2023-06-22T01:31:23;18.80;99.90
18335;DHT22;9293;49.524;10.964;2023-06-22T01:33:57;18.80;99.90
18335;DHT22;9293;49.524;10.964;2023-06-22T01:36:28;18.70;99.90
18335;DHT22;9293;49.524;10.964;2023-06-22T01:38:57;18.70;99.90
18335;DHT22;9293;49.524;10.964;2023-06-22T01:41:26;18.70;99.90
18335;DHT22;9293;49.524;10.964;2023-06-22T01:43:59;18.70;99.90
18335;DHT22;9293;49.524;10.964;2023-06-22T01:46:28;18.80;99.90
18335;DHT22;9293;49.524;10.964;2023-06-22T01:48:57;18.80;99.90
18335;DHT22;9293;49.524;10.964;2023-06-22T01:51:25;18.80;99.90
18335;DHT22;9293;49.524;10.964;2023-06-22T01:53:53;18.80;99.90
18335;DHT22;9293;49.524;10.964;2023-06-22T01:56:21;18.80;99.90
18335;DHT22;9293;49.524;10.964;2023-06-22T01:58:51;18.70;99.90
18335;DHT22;9293;49.524;10.964;2023-06-22T02:01:28;18.60;99.90
18335;DHT22;9293;49.524;10.964;2023-06-22T02:04:03;18.40;99.90
18335;DHT22;9293;49.524;10.964;2023-06-22T02:06:37;18.30;99.90
18335;DHT22;9293;49.524;10.964;2023-06-22T02:09:09;18.10;99.90
18335;DHT22;9293;49.524;10.964;2023-06-22T02:11:40;18.00;99.90
18335;DHT22;9293;49.524;10.964;2023-06-22T02:17:52;18.00;99.90
18335;DHT22;9293;49.524;10.964;2023-06-22T02:20:21;18.00;99.90
18335;DHT22;9293;49.524;10.964;2023-06-22T02:22:49;18.00;99.90
18335;DHT22;9293;49.524;10.964;2023-06-22T02:25:17;18.10;99.90
18335;DHT22;9293;49.524;10.964;2023-06-22T02:27:46;18.00;99.90
18335;DHT22;9293;49.524;10.964;2023-06-22T02:30:16;18.00;99.90
18335;DHT22;9293;49.524;10.964;2023-06-22T02:32:44;18.10;99.90
18335;DHT22;9293;49.524;10.964;2023-06-22T02:35:15;18.10;99.90
18335;DHT22;9293;49.524;10.964;2023-06-22T02:37:46;17.90;99.90
18335;DHT22;9293;49.524;10.964;2023-06-22T02:40:15;17.90;99.90
18335;DHT22;9293;49.524;10.964;2023-06-22T02:42:44;17.70;99.90
18335;DHT22;9293;49.524;10.964;2023-06-22T02:45:12;17.70;99.90
18335;DHT22;9293;49.524;10.964;2023-06-22T02:47:42;17.90;99.90
18335;DHT22;9293;49.524;10.964;2023-06-22T02:50:11;18.10;99.90
18335;DHT22;9293;49.524;10.964;2023-06-22T02:52:39;18.30;99.90
18335;DHT22;9293;49.524;10.964;2023-06-22T02:55:08;18.60;99.90
18335;DHT22;9293;49.524;10.964;2023-06-22T02:57:36;18.60;99.90
18335;DHT22;9293;49.524;10.964;2023-06-22T03:00:05;18.80;99.90
18335;DHT22;9293;49.524;10.964;2023-06-22T03:02:46;18.90;99.90
18335;DHT22;9293;49.524;10.964;2023-06-22T03:05:16;18.90;99.90
18335;DHT22;9293;49.524;10.964;2023-06-22T03:07:47;18.90;99.90
18335;DHT22;9293;49.524;10.964;2023-06-22T03:10:16;19.00;99.90
18335;DHT22;9293;49.524;10.964;2023-06-22T03:12:44;19.00;99.90
18335;DHT22;9293;49.524;10.964;2023-06-22T03:15:12;19.00;99.90
18335;DHT22;9293;49.524;10.964;2023-06-22T03:17:41;19.00;99.90
18335;DHT22;9293;49.524;10.964;2023-06-22T03:20:10;19.10;99.90
18335;DHT22;9293;49.524;10.964;2023-06-22T03:22:40;19.00;99.90
18335;DHT22;9293;49.524;10.964;2023-06-22T03:25:10;19.00;99.90
18335;DHT22;9293;49.524;10.964;2023-06-22T03:27:44;19.00;99.90
18335;DHT22;9293;49.524;10.964;2023-06-22T03:30:12;18.90;99.90
18335;DHT22;9293;49.524;10.964;2023-06-22T03:32:40;18.90;99.90
18335;DHT22;9293;49.524;10.964;2023-06-22T03:35:09;18.90;99.90
18335;DHT22;9293;49.524;10.964;2023-06-22T03:37:38;18.90;99.90
18335;DHT22;9293;49.524;10.964;2023-06-22T03:40:06;18.80;99.90
18335;DHT22;9293;49.524;10.964;2023-06-22T03:42:35;18.80;99.90
18335;DHT22;9293;49.524;10.964;2023-06-22T03:45:10;18.80;99.90
18335;DHT22;9293;49.524;10.964;2023-06-22T03:47:40;18.80;99.90
18335;DHT22;9293;49.524;10.964;2023-06-22T03:50:09;18.80;99.90
18335;DHT22;9293;49.524;10.964;2023-06-22T03:52:37;18.80;99.90
18335;DHT22;9293;49.524;10.964;2023-06-22T03:55:06;18.80;99.90
18335;DHT22;9293;49.524;10.964;2023-06-22T03:57:34;18.80;99.90
18335;DHT22;9293;49.524;10.964;2023-06-22T04:00:02;18.70;99.90
18335;DHT22;9293;49.524;10.964;2023-06-22T04:02:41;18.60;99.90
18335;DHT22;9293;49.524;10.964;2023-06-22T04:05:09;18.70;99.90
18335;DHT22;9293;49.524;10.964;2023-06-22T04:07:38;18.80;99.90
18335;DHT22;9293;49.524;10.964;2023-06-22T04:10:06;18.80;99.90
18335;DHT22;9293;49.524;10.964;2023-06-22T04:12:38;18.80;99.90
18335;DHT22;9293;49.524;10.964;2023-06-22T04:15:06;18.90;99.90
18335;DHT22;9293;49.524;10.964;2023-06-22T04:17:35;19.00;99.90
18335;DHT22;9293;49.524;10.964;2023-06-22T04:20:03;19.00;99.90
18335;DHT22;9293;49.524;10.964;2023-06-22T04:22:32;19.10;99.90
18335;DHT22;9293;49.524;10.964;2023-06-22T04:25:00;19.20;99.90
18335;DHT22;9293;49.524;10.964;2023-06-22T04:27:28;19.20;99.90
18335;DHT22;9293;49.524;10.964;2023-06-22T04:29:57;19.20;99.90
18335;DHT22;9293;49.524;10.964;2023-06-22T04:32:28;19.20;99.90
18335;DHT22;9293;49.524;10.964;2023-06-22T04:34:56;19.30;99.90
18335;DHT22;9293;49.524;10.964;2023-06-22T04:37:28;19.30;99.90
18335;DHT22;9293;49.524;10.964;2023-06-22T04:39:57;19.40;99.90
18335;DHT22;9293;49.524;10.964;2023-06-22T04:42:29;19.40;99.90
18335;DHT22;9293;49.524;10.964;2023-06-22T04:44:58;19.50;99.90
18335;DHT22;9293;49.524;10.964;2023-06-22T04:47:28;19.50;99.90
18335;DHT22;9293;49.524;10.964;2023-06-22T04:49:56;19.60;99.90
18335;DHT22;9293;49.524;10.964;2023-06-22T04:52:28;19.60;99.90
18335;DHT22;9293;49.524;10.964;2023-06-22T04:54:59;19.60;99.90
18335;DHT22;9293;49.524;10.964;2023-06-22T04:57:31;19.70;99.90
18335;DHT22;9293;49.524;10.964;2023-06-22T05:00:02;19.80;99.90
18335;DHT22;9293;49.524;10.964;2023-06-22T05:02:45;19.80;99.90
18335;DHT22;9293;49.524;10.964;2023-06-22T05:05:14;19.90;99.90
18335;DHT22;9293;49.524;10.964;2023-06-22T05:07:43;19.80;99.90
18335;DHT22;9293;49.524;10.964;2023-06-22T05:10:11;19.80;99.90
18335;DHT22;9293;49.524;10.964;2023-06-22T05:12:41;19.90;99.90
18335;DHT22;9293;49.524;10.964;2023-06-22T05:15:09;20.00;99.90
18335;DHT22;9293;49.524;10.964;2023-06-22T05:17:38;20.10;99.90
18335;DHT22;9293;49.524;10.964;2023-06-22T05:20:13;20.20;99.90
18335;DHT22;9293;49.524;10.964;2023-06-22T05:22:41;20.30;99.90
18335;DHT22;9293;49.524;10.964;2023-06-22T05:25:11;20.40;99.90
18335;DHT22;9293;49.524;10.964;2023-06-22T05:27:39;20.50;99.90
18335;DHT22;9293;49.524;10.964;2023-06-22T05:30:08;20.60;99.90
18335;DHT22;9293;49.524;10.964;2023-06-22T05:32:40;20.70;99.90
18335;DHT22;9293;49.524;10.964;2023-06-22T05:35:10;20.90;99.90
18335;DHT22;9293;49.524;10.964;2023-06-22T05:37:57;21.00;99.90
18335;DHT22;9293;49.524;10.964;2023-06-22T05:40:26;21.10;99.90
18335;DHT22;9293;49.524;10.964;2023-06-22T05:42:57;21.20;99.90
18335;DHT22;9293;49.524;10.964;2023-06-22T05:45:27;21.30;99.90
18335;DHT22;9293;49.524;10.964;2023-06-22T05:47:59;21.30;99.90
18335;DHT22;9293;49.524;10.964;2023-06-22T05:50:31;21.40;99.90
18335;DHT22;9293;49.524;10.964;2023-06-22T05:53:00;21.50;99.90
18335;DHT22;9293;49.524;10.964;2023-06-22T05:55:33;21.60;99.90
18335;DHT22;9293;49.524;10.964;2023-06-22T05:58:03;21.60;99.90
18335;DHT22;9293;49.524;10.964;2023-06-22T06:00:35;21.80;99.90
18335;DHT22;9293;49.524;10.964;2023-06-22T06:03:05;21.80;99.90
18335;DHT22;9293;49.524;10.964;2023-06-22T06:05:36;22.00;99.90
18335;DHT22;9293;49.524;10.964;2023-06-22T06:08:06;22.00;99.90
18335;DHT22;9293;49.524;10.964;2023-06-22T06:10:41;22.20;99.90
18335;DHT22;9293;49.524;10.964;2023-06-22T06:13:12;22.30;99.90
18335;DHT22;9293;49.524;10.964;2023-06-22T06:15:52;22.40;99.90
18335;DHT22;9293;49.524;10.964;2023-06-22T06:18:33;22.50;99.90
18335;DHT22;9293;49.524;10.964;2023-06-22T06:21:11;22.60;99.90
18335;DHT22;9293;49.524;10.964;2023-06-22T06:23:48;22.70;99.90
18335;DHT22;9293;49.524;10.964;2023-06-22T06:26:40;22.90;99.90
18335;DHT22;9293;49.524;10.964;2023-06-22T06:29:21;23.10;99.90
18335;DHT22;9293;49.524;10.964;2023-06-22T06:32:15;23.20;99.90
18335;DHT22;9293;49.524;10.964;2023-06-22T06:35:50;23.50;99.90
18335;DHT22;9293;49.524;10.964;2023-06-22T06:50:42;24.40;99.90
18335;DHT22;9293;49.524;10.964;2023-06-22T06:53:12;24.70;99.90
18335;DHT22;9293;49.524;10.964;2023-06-22T06:55:40;24.70;99.90
18335;DHT22;9293;49.524;10.964;2023-06-22T06:58:08;24.90;99.90
18335;DHT22;9293;49.524;10.964;2023-06-22T07:00:37;25.10;99.90
18335;DHT22;9293;49.524;10.964;2023-06-22T07:03:06;25.10;99.90
18335;DHT22;9293;49.524;10.964;2023-06-22T07:05:35;25.20;99.90
18335;DHT22;9293;49.524;10.964;2023-06-22T07:08:03;25.40;99.90
18335;DHT22;9293;49.524;10.964;2023-06-22T07:10:31;25.60;99.90
18335;DHT22;9293;49.524;10.964;2023-06-22T07:12:59;25.70;99.90
18335;DHT22;9293;49.524;10.964;2023-06-22T07:15:28;25.70;99.90
18335;DHT22;9293;49.524;10.964;2023-06-22T07:17:56;25.80;99.90
18335;DHT22;9293;49.524;10.964;2023-06-22T07:20:24;25.90;99.90
18335;DHT22;9293;49.524;10.964;2023-06-22T07:22:53;25.90;99.90
18335;DHT22;9293;49.524;10.964;2023-06-22T07:25:22;26.10;99.90
18335;DHT22;9293;49.524;10.964;2023-06-22T07:27:57;26.30;99.90
18335;DHT22;9293;49.524;10.964;2023-06-22T07:30:25;26.40;99.90
18335;DHT22;9293;49.524;10.964;2023-06-22T07:32:59;26.70;99.90
18335;DHT22;9293;49.524;10.964;2023-06-22T07:35:32;26.80;99.90
18335;DHT22;9293;49.524;10.964;2023-06-22T07:38:00;26.90;99.90
18335;DHT22;9293;49.524;10.964;2023-06-22T07:40:31;26.90;99.90
18335;DHT22;9293;49.524;10.964;2023-06-22T07:43:00;27.00;99.90
18335;DHT22;9293;49.524;10.964;2023-06-22T07:45:29;27.10;99.90
18335;DHT22;9293;49.524;10.964;2023-06-22T07:47:57;27.30;99.90
18335;DHT22;9293;49.524;10.964;2023-06-22T07:50:25;27.70;99.90
18335;DHT22;9293;49.524;10.964;2023-06-22T07:52:54;27.90;99.90
18335;DHT22;9293;49.524;10.964;2023-06-22T07:55:22;28.00;99.90
18335;DHT22;9293;49.524;10.964;2023-06-22T07:57:50;28.10;99.90
18335;DHT22;9293;49.524;10.964;2023-06-22T08:00:19;28.20;99.90
18335;DHT22;9293;49.524;10.964;2023-06-22T08:02:48;28.30;99.90
18335;DHT22;9293;49.524;10.964;2023-06-22T08:05:17;28.40;99.90
18335;DHT22;9293;49.524;10.964;2023-06-22T08:07:48;28.50;99.90
18335;DHT22;9293;49.524;10.964;2023-06-22T08:10:17;28.40;99.90
18335;DHT22;9293;49.524;10.964;2023-06-22T08:12:45;28.50;99.90
18335;DHT22;9293;49.524;10.964;2023-06-22T08:15:14;28.80;99.90
18335;DHT22;9293;49.524;10.964;2023-06-22T08:17:43;29.10;99.90
18335;DHT22;9293;49.524;10.964;2023-06-22T08:20:12;29.40;99.90
18335;DHT22;9293;49.524;10.964;2023-06-22T08:22:40;29.50;99.90
18335;DHT22;9293;49.524;10.964;2023-06-22T08:25:09;29.60;99.90
18335;DHT22;9293;49.524;10.964;2023-06-22T08:27:37;29.80;99.90
18335;DHT22;9293;49.524;10.964;2023-06-22T08:30:06;29.90;99.90
18335;DHT22;9293;49.524;10.964;2023-06-22T08:32:34;29.90;99.90
18335;DHT22;9293;49.524;10.964;2023-06-22T08:35:03;29.90;99.90
18335;DHT22;9293;49.524;10.964;2023-06-22T08:37:31;30.00;99.90
18335;DHT22;9293;49.524;10.964;2023-06-22T08:40:00;30.00;99.90
18335;DHT22;9293;49.524;10.964;2023-06-22T08:42:29;30.30;99.90
18335;DHT22;9293;49.524;10.964;2023-06-22T08:44:57;30.60;99.90
18335;DHT22;9293;49.524;10.964;2023-06-22T08:47:26;30.70;99.90
18335;DHT22;9293;49.524;10.964;2023-06-22T08:49:55;30.80;99.90
18335;DHT22;9293;49.524;10.964;2023-06-22T08:52:24;30.90;99.90
18335;DHT22;9293;49.524;10.964;2023-06-22T08:54:52;30.80;99.90
18335;DHT22;9293;49.524;10.964;2023-06-22T08:57:21;31.00;99.90
18335;DHT22;9293;49.524;10.964;2023-06-22T08:59:49;31.20;99.90
18335;DHT22;9293;49.524;10.964;2023-06-22T09:02:24;31.20;99.90
18335;DHT22;9293;49.524;10.964;2023-06-22T09:04:57;31.10;99.90
18335;DHT22;9293;49.524;10.964;2023-06-22T09:07:26;31.10;99.90
18335;DHT22;9293;49.524;10.964;2023-06-22T09:09:55;31.20;99.90
18335;DHT22;9293;49.524;10.964;2023-06-22T09:12:24;31.20;99.90
18335;DHT22;9293;49.524;10.964;2023-06-22T09:14:54;31.10;99.90
18335;DHT22;9293;49.524;10.964;2023-06-22T09:17:23;31.10;99.90
18335;DHT22;9293;49.524;10.964;2023-06-22T09:19:51;31.30;99.90
18335;DHT22;9293;49.524;10.964;2023-06-22T09:22:19;31.40;99.90
18335;DHT22;9293;49.524;10.964;2023-06-22T09:24:47;31.50;99.90
18335;DHT22;9293;49.524;10.964;2023-06-22T09:27:16;31.60;99.90
18335;DHT22;9293;49.524;10.964;2023-06-22T09:29:44;31.50;99.90
18335;DHT22;9293;49.524;10.964;2023-06-22T09:32:12;31.50;99.90
18335;DHT22;9293;49.524;10.964;2023-06-22T09:34:40;31.50;99.90
18335;DHT22;9293;49.524;10.964;2023-06-22T09:37:08;31.40;99.90
18335;DHT22;9293;49.524;10.964;2023-06-22T09:39:36;31.30;99.90
18335;DHT22;9293;49.524;10.964;2023-06-22T09:42:05;31.60;99.90
18335;DHT22;9293;49.524;10.964;2023-06-22T09:44:34;31.80;99.90
18335;DHT22;9293;49.524;10.964;2023-06-22T09:47:02;32.20;99.90
18335;DHT22;9293;49.524;10.964;2023-06-22T09:49:30;32.50;99.90
18335;DHT22;9293;49.524;10.964;2023-06-22T09:52:13;32.50;99.90
18335;DHT22;9293;49.524;10.964;2023-06-22T09:54:41;32.40;99.90
18335;DHT22;9293;49.524;10.964;2023-06-22T09:57:10;32.40;99.90
18335;DHT22;9293;49.524;10.964;2023-06-22T09:59:38;32.50;99.90
18335;DHT22;9293;49.524;10.964;2023-06-22T10:02:08;32.70;99.90
18335;DHT22;9293;49.524;10.964;2023-06-22T10:04:36;32.90;99.90
18335;DHT22;9293;49.524;10.964;2023-06-22T10:07:05;33.00;99.90
18335;DHT22;9293;49.524;10.964;2023-06-22T10:09:33;33.00;99.90
18335;DHT22;9293;49.524;10.964;2023-06-22T10:12:01;32.90;99.90
18335;DHT22;9293;49.524;10.964;2023-06-22T10:14:29;33.00;99.90
18335;DHT22;9293;49.524;10.964;2023-06-22T10:16:58;33.00;99.90
18335;DHT22;9293;49.524;10.964;2023-06-22T10:19:26;33.10;99.90
18335;DHT22;9293;49.524;10.964;2023-06-22T10:21:54;33.40;99.90
18335;DHT22;9293;49.524;10.964;2023-06-22T10:24:23;33.60;99.90
18335;DHT22;9293;49.524;10.964;2023-06-22T10:26:53;33.70;99.90
18335;DHT22;9293;49.524;10.964;2023-06-22T10:29:24;33.90;99.90
18335;DHT22;9293;49.524;10.964;2023-06-22T10:31:56;34.00;99.90
18335;DHT22;9293;49.524;10.964;2023-06-22T10:34:24;34.20;99.90
18335;DHT22;9293;49.524;10.964;2023-06-22T10:36:52;34.10;99.90
18335;DHT22;9293;49.524;10.964;2023-06-22T10:39:21;34.20;99.90
18335;DHT22;9293;49.524;10.964;2023-06-22T10:41:49;34.10;99.90
18335;DHT22;9293;49.524;10.964;2023-06-22T10:44:17;34.50;99.90
18335;DHT22;9293;49.524;10.964;2023-06-22T10:46:45;34.70;99.90
18335;DHT22;9293;49.524;10.964;2023-06-22T10:49:13;34.60;99.90
18335;DHT22;9293;49.524;10.964;2023-06-22T10:51:41;34.60;99.90
18335;DHT22;9293;49.524;10.964;2023-06-22T10:54:10;34.80;99.90
18335;DHT22;9293;49.524;10.964;2023-06-22T10:56:38;35.00;99.90
18335;DHT22;9293;49.524;10.964;2023-06-22T10:59:06;35.10;99.90
18335;DHT22;9293;49.524;10.964;2023-06-22T11:01:35;35.30;99.90
18335;DHT22;9293;49.524;10.964;2023-06-22T11:04:03;35.50;99.90
18335;DHT22;9293;49.524;10.964;2023-06-22T11:06:32;35.50;99.90
18335;DHT22;9293;49.524;10.964;2023-06-22T11:09:00;35.20;99.90
18335;DHT22;9293;49.524;10.964;2023-06-22T11:11:42;34.90;99.90
18335;DHT22;9293;49.524;10.964;2023-06-22T11:14:11;34.90;99.90
18335;DHT22;9293;49.524;10.964;2023-06-22T11:16:39;34.90;99.90
18335;DHT22;9293;49.524;10.964;2023-06-22T11:19:07;34.60;99.90
18335;DHT22;9293;49.524;10.964;2023-06-22T11:21:35;34.40;99.90
18335;DHT22;9293;49.524;10.964;2023-06-22T11:24:03;34.20;99.90
18335;DHT22;9293;49.524;10.964;2023-06-22T11:26:32;34.40;99.90
18335;DHT22;9293;49.524;10.964;2023-06-22T11:29:01;34.60;99.90
18335;DHT22;9293;49.524;10.964;2023-06-22T11:31:34;34.90;99.90
18335;DHT22;9293;49.524;10.964;2023-06-22T11:34:02;35.10;99.90
18335;DHT22;9293;49.524;10.964;2023-06-22T11:36:30;35.10;99.90
18335;DHT22;9293;49.524;10.964;2023-06-22T11:39:01;35.10;99.90
18335;DHT22;9293;49.524;10.964;2023-06-22T11:41:35;35.30;99.90
18335;DHT22;9293;49.524;10.964;2023-06-22T11:44:06;35.10;99.90
18335;DHT22;9293;49.524;10.964;2023-06-22T11:46:37;35.20;99.90
18335;DHT22;9293;49.524;10.964;2023-06-22T11:49:05;35.40;99.90
18335;DHT22;9293;49.524;10.964;2023-06-22T11:51:34;35.50;99.00
18335;DHT22;9293;49.524;10.964;2023-06-22T11:54:04;35.70;99.50
18335;DHT22;9293;49.524;10.964;2023-06-22T11:56:32;35.70;98.60
18335;DHT22;9293;49.524;10.964;2023-06-22T11:59:00;35.60;99.40
18335;DHT22;9293;49.524;10.964;2023-06-22T12:01:29;35.60;98.80
18335;DHT22;9293;49.524;10.964;2023-06-22T12:03:57;35.70;98.20
18335;DHT22;9293;49.524;10.964;2023-06-22T12:06:25;35.80;98.50
18335;DHT22;9293;49.524;10.964;2023-06-22T12:08:53;35.90;99.30
18335;DHT22;9293;49.524;10.964;2023-06-22T12:11:21;36.30;97.90
18335;DHT22;9293;49.524;10.964;2023-06-22T12:13:50;36.30;97.90
18335;DHT22;9293;49.524;10.964;2023-06-22T12:16:18;36.20;97.90
18335;DHT22;9293;49.524;10.964;2023-06-22T12:18:47;36.20;98.20
18335;DHT22;9293;49.524;10.964;2023-06-22T12:21:16;36.20;97.50
18335;DHT22;9293;49.524;10.964;2023-06-22T12:23:44;36.10;98.10
18335;DHT22;9293;49.524;10.964;2023-06-22T12:26:12;36.10;96.90
18335;DHT22;9293;49.524;10.964;2023-06-22T12:28:40;36.00;98.00
18335;DHT22;9293;49.524;10.964;2023-06-22T12:31:08;35.80;97.70
18335;DHT22;9293;49.524;10.964;2023-06-22T12:33:36;35.70;98.00
18335;DHT22;9293;49.524;10.964;2023-06-22T12:36:05;35.60;97.70
18335;DHT22;9293;49.524;10.964;2023-06-22T12:38:33;35.20;97.90
18335;DHT22;9293;49.524;10.964;2023-06-22T12:41:01;35.40;97.90
18335;DHT22;9293;49.524;10.964;2023-06-22T12:43:30;35.90;97.30
18335;DHT22;9293;49.524;10.964;2023-06-22T12:45:58;36.30;97.60
18335;DHT22;9293;49.524;10.964;2023-06-22T12:48:27;36.60;97.10
18335;DHT22;9293;49.524;10.964;2023-06-22T12:50:55;36.80;96.20
18335;DHT22;9293;49.524;10.964;2023-06-22T12:53:23;36.70;96.10
18335;DHT22;9293;49.524;10.964;2023-06-22T12:55:51;36.30;95.90
18335;DHT22;9293;49.524;10.964;2023-06-22T12:58:22;36.00;96.50
18335;DHT22;9293;49.524;10.964;2023-06-22T13:00:50;35.70;95.90
18335;DHT22;9293;49.524;10.964;2023-06-22T13:03:18;35.70;96.20
18335;DHT22;9293;49.524;10.964;2023-06-22T13:05:47;35.50;96.40
18335;DHT22;9293;49.524;10.964;2023-06-22T13:08:15;35.40;96.00
18335;DHT22;9293;49.524;10.964;2023-06-22T13:10:43;35.10;95.40
18335;DHT22;9293;49.524;10.964;2023-06-22T13:13:11;35.10;95.90
18335;DHT22;9293;49.524;10.964;2023-06-22T13:15:40;35.20;96.30
18335;DHT22;9293;49.524;10.964;2023-06-22T13:18:08;35.50;97.00
18335;DHT22;9293;49.524;10.964;2023-06-22T13:20:36;35.70;95.70
18335;DHT22;9293;49.524;10.964;2023-06-22T13:23:04;36.00;96.50
18335;DHT22;9293;49.524;10.964;2023-06-22T13:25:32;36.40;95.90
18335;DHT22;9293;49.524;10.964;2023-06-22T13:28:01;36.50;95.30
18335;DHT22;9293;49.524;10.964;2023-06-22T13:30:33;36.50;94.90
18335;DHT22;9293;49.524;10.964;2023-06-22T13:33:01;36.60;95.20
18335;DHT22;9293;49.524;10.964;2023-06-22T13:35:29;36.60;94.50
18335;DHT22;9293;49.524;10.964;2023-06-22T13:37:57;36.40;94.10
18335;DHT22;9293;49.524;10.964;2023-06-22T13:40:29;36.10;94.10
18335;DHT22;9293;49.524;10.964;2023-06-22T13:42:57;35.70;93.70
18335;DHT22;9293;49.524;10.964;2023-06-22T13:45:25;35.50;94.40
18335;DHT22;9293;49.524;10.964;2023-06-22T13:47:54;35.20;94.90
18335;DHT22;9293;49.524;10.964;2023-06-22T13:50:22;35.20;95.60
18335;DHT22;9293;49.524;10.964;2023-06-22T13:52:50;35.20;95.40
18335;DHT22;9293;49.524;10.964;2023-06-22T13:55:18;35.20;95.90
18335;DHT22;9293;49.524;10.964;2023-06-22T13:57:49;35.30;95.90
18335;DHT22;9293;49.524;10.964;2023-06-22T14:00:19;35.30;95.80
18335;DHT22;9293;49.524;10.964;2023-06-22T14:02:48;35.20;96.10
18335;DHT22;9293;49.524;10.964;2023-06-22T14:05:16;35.20;96.20
18335;DHT22;9293;49.524;10.964;2023-06-22T14:07:45;35.40;96.80
18335;DHT22;9293;49.524;10.964;2023-06-22T14:10:13;35.70;96.00
18335;DHT22;9293;49.524;10.964;2023-06-22T14:12:41;36.00;96.30
18335;DHT22;9293;49.524;10.964;2023-06-22T14:15:09;36.30;95.00
18335;DHT22;9293;49.524;10.964;2023-06-22T14:17:37;36.30;94.60
18335;DHT22;9293;49.524;10.964;2023-06-22T14:20:06;36.10;94.40
18335;DHT22;9293;49.524;10.964;2023-06-22T14:22:36;36.00;93.60
18335;DHT22;9293;49.524;10.964;2023-06-22T14:25:04;35.90;93.80
18335;DHT22;9293;49.524;10.964;2023-06-22T14:27:32;35.70;94.20
18335;DHT22;9293;49.524;10.964;2023-06-22T14:30:01;35.70;94.30
18335;DHT22;9293;49.524;10.964;2023-06-22T14:32:32;35.70;94.90
18335;DHT22;9293;49.524;10.964;2023-06-22T14:35:00;35.80;95.20
18335;DHT22;9293;49.524;10.964;2023-06-22T14:37:28;35.90;94.60
18335;DHT22;9293;49.524;10.964;2023-06-22T14:39:57;35.90;95.20
18335;DHT22;9293;49.524;10.964;2023-06-22T14:42:25;35.80;95.00
18335;DHT22;9293;49.524;10.964;2023-06-22T14:44:54;35.80;94.80
18335;DHT22;9293;49.524;10.964;2023-06-22T14:47:22;35.70;94.40
18335;DHT22;9293;49.524;10.964;2023-06-22T14:49:50;35.50;94.70
18335;DHT22;9293;49.524;10.964;2023-06-22T14:52:19;35.50;95.30
18335;DHT22;9293;49.524;10.964;2023-06-22T14:54:47;35.70;95.00
18335;DHT22;9293;49.524;10.964;2023-06-22T14:57:15;35.80;95.30
18335;DHT22;9293;49.524;10.964;2023-06-22T14:59:46;36.00;94.30
18335;DHT22;9293;49.524;10.964;2023-06-22T15:02:15;36.20;94.20
18335;DHT22;9293;49.524;10.964;2023-06-22T15:04:44;36.30;95.00
18335;DHT22;9293;49.524;10.964;2023-06-22T15:07:12;36.50;94.40
18335;DHT22;9293;49.524;10.964;2023-06-22T15:09:40;36.50;93.50
18335;DHT22;9293;49.524;10.964;2023-06-22T15:12:10;36.60;92.80
18335;DHT22;9293;49.524;10.964;2023-06-22T15:14:39;36.60;92.60
18335;DHT22;9293;49.524;10.964;2023-06-22T15:17:16;36.50;92.40
18335;DHT22;9293;49.524;10.964;2023-06-22T15:19:45;36.40;92.20
18335;DHT22;9293;49.524;10.964;2023-06-22T15:22:13;36.30;92.80
18335;DHT22;9293;49.524;10.964;2023-06-22T15:24:41;36.30;92.80
18335;DHT22;9293;49.524;10.964;2023-06-22T15:27:09;36.30;93.00
18335;DHT22;9293;49.524;10.964;2023-06-22T15:29:37;36.20;93.00
18335;DHT22;9293;49.524;10.964;2023-06-22T15:32:09;36.40;92.50
18335;DHT22;9293;49.524;10.964;2023-06-22T15:34:37;36.30;93.00
18335;DHT22;9293;49.524;10.964;2023-06-22T15:37:06;36.00;92.20
18335;DHT22;9293;49.524;10.964;2023-06-22T15:39:34;35.60;94.10
18335;DHT22;9293;49.524;10.964;2023-06-22T15:42:02;35.40;93.90
18335;DHT22;9293;49.524;10.964;2023-06-22T15:44:30;35.40;94.00
18335;DHT22;9293;49.524;10.964;2023-06-22T15:46:58;35.50;93.90
18335;DHT22;9293;49.524;10.964;2023-06-22T15:49:27;35.40;92.90
18335;DHT22;9293;49.524;10.964;2023-06-22T15:51:55;35.60;93.50
18335;DHT22;9293;49.524;10.964;2023-06-22T15:54:23;35.80;92.80
18335;DHT22;9293;49.524;10.964;2023-06-22T15:56:51;35.70;92.10
18335;DHT22;9293;49.524;10.964;2023-06-22T15:59:20;35.60;92.40
18335;DHT22;9293;49.524;10.964;2023-06-22T16:01:48;35.70;92.70
18335;DHT22;9293;49.524;10.964;2023-06-22T16:04:16;35.70;92.50
18335;DHT22;9293;49.524;10.964;2023-06-22T16:06:44;35.70;92.50
18335;DHT22;9293;49.524;10.964;2023-06-22T16:09:12;35.60;91.90
18335;DHT22;9293;49.524;10.964;2023-06-22T16:11:43;35.70;91.70
18335;DHT22;9293;49.524;10.964;2023-06-22T16:14:11;35.70;92.40